Tiempo atmosférico en la estación meteorológica de Forua, Bizkaia (45 m.)



Fecha
DESCASC
Temp. máxima en grados centígrados (hora)
DESCASC
Temp. mínima en grados centígrados (hora)
DESCASC
Temp. media en grados centígrados
DESCASC
Racha de viento máxima en m/sg (hora)
DESCASC
Velocidad máxima media en intervalos de 10 minutos(hora)
DESCASC
Precipitaciones diarias en mm
DESCASC
Precipitaciones de 00:00 a 06:00 en mm
DESCASC
Precipitaciones de 06:00 a 12:00 en mm
DESCASC
Precipitaciones de 12:00 a 18:00 en mm
DESCASC
Precipitaciones de 18:00 a 24:00 en mm
DESCASC
04-03-2021 19 (13:00) 6.3 (07:20) 12.7 7.78 (17:00) 5.28 (17:00) 0 0 0 0 0
03-03-2021 19.9 (13:40) 9 (23:50) 14.4 6.39 (15:40) 4.44 (16:00) 0 0 0 0 0
02-03-2021 20 (15:10) 12.3 (23:50) 16.2 12.22 (01:40) 7.5 (04:00) 0 0 0 0 0
01-03-2021 16.9 (13:10) 7.5 (02:20) 12.2 12.78 (12:30) 6.94 (11:20) 0.2 0.2 0 0 0
28-02-2021 12.2 (14:00) 4.9 (00:00) 8.5 5.56 (14:30) 3.33 (14:20) 2.4 0 0 0 2.4
27-02-2021 12.3 (15:00) 8.2 (00:00) 10.3 6.67 (08:50) 3.89 (08:30) 0 0 0 0 0
26-02-2021 13.7 (13:00) 10.8 (00:00) 12.3 4.72 (17:20) 2.78 (14:30) 0 0 0 0 0
25-02-2021 16.9 (14:40) 11.9 (00:00) 14.4 8.89 (09:40) 5.28 (09:50) 0 0 0 0 0
24-02-2021 21.6 (15:20) 12.6 (00:00) 17.1 11.11 (13:10) 7.5 (10:00) 0 0 0 0 0
23-02-2021 19.3 (15:40) 4.8 (00:00) 12 13.06 (14:50) 6.39 (15:10) 0 0 0 0 0
22-02-2021 12.3 (15:00) 6.5 (00:00) 9.4 11.11 (00:40) 3.61 (04:20) 21.4 11.4 9.4 0.6 0
21-02-2021 19.2 (13:50) 8.2 (00:00) 13.7 9.72 (15:30) 6.39 (15:30) 18 0 0 0 18
20-02-2021 22.5 (16:30) 16.9 (00:00) 19.7 16.39 (09:50) 9.17 (09:50) 0 0 0 0 0
19-02-2021 21.7 (16:40) 6.6 (00:00) 14.2 18.61 (11:40) 8.89 (13:20) 0 0 0 0 0
18-02-2021 18.8 (11:20) 8.1 (00:00) 13.4 14.72 (06:50) 8.89 (06:40) 0 0 0 0 0
17-02-2021 20.1 (14:40) 5.8 (00:00) 13 12.5 (13:40) 7.78 (14:50) 0.2 0.2 0 0 0
16-02-2021 18.3 (12:30) 8.5 (00:00) 13.4 15.83 (12:40) 8.89 (03:10) 0.2 0 0 0 0.2
15-02-2021 19.3 (14:10) 10.7 (00:00) 15 14.72 (22:30) 9.44 (23:00) 0 0 0 0 0
14-02-2021 19.4 (14:50) 4.5 (00:00) 11.9 15.83 (13:50) 10.28 (13:50) 0.2 0.2 0 0 0
13-02-2021 15.5 (15:40) 6.3 (00:00) 10.9 5.28 (16:40) 3.61 (16:40) 0 0 0 0 0
12-02-2021 15.9 (04:50) 10.1 (00:00) 13 15.56 (14:30) 8.89 (16:10) 16.8 1.2 7.8 7.8 0
11-02-2021 19.4 (14:10) 4 (00:00) 11.7 6.94 (17:10) 3.89 (15:10) 0 0 0 0 0
10-02-2021 12.8 (16:50) 6.7 (00:00) 9.8 11.94 (14:30) 4.72 (17:30) 2 0 1.4 0.6 0
09-02-2021 15.1 (12:30) 8.6 (00:00) 11.9 14.17 (11:40) 7.78 (11:40) 0.4 0 0 0.4 0
08-02-2021 14.7 (15:30) 8.8 (00:00) 11.8 8.33 (12:50) 4.44 (04:20) 1.6 0.8 0.6 0 0.2
07-02-2021 11.9 (15:40) 5.3 (00:00) 8.6 6.39 (01:00) 3.33 (13:40) 2.8 2.4 0 0 0.4
06-02-2021 11.5 (03:50) 6.8 (00:00) 9.2 15.28 (12:30) 8.33 (12:50) 35.2 1 24 9.2 1
05-02-2021 12.3 (14:10) 10 (00:00) 11.2 4.17 (15:40) 2.5 (15:40) 1.2 0.2 1 0 0
04-02-2021 16.6 (13:00) 9.9 (00:00) 13.3 8.06 (03:10) 5 (02:30) 8.6 0 0 0.2 8.4

Gráficas

Temp. máximas Temp. mínimas Temp. medias Precipitaciones Rachas de viento máximas Velocidades máximas media en intervalos de 10 minutos

Datos horarios

Fecha y hora oficial Temperatura (ºC) Velocidad del viento (km/h) Dirección del viento Racha (km/h) Dirección de racha Precipitación (mm) Presión (hPa) Tendencia (hPa) Humedad (%)
2021-03-05 23:00:00 10.1 3 Nordeste 8 Este 0 -- -- 85
2021-03-05 22:00:00 10 4 Norte 9 Norte 0 -- -- 86
2021-03-05 21:00:00 9.9 4 Nordeste 14 Nordeste 0 -- -- 86
2021-03-05 20:00:00 10.2 7 Nordeste 13 Nordeste 0 -- -- 86
2021-03-05 19:00:00 10.4 9 Nordeste 15 Nordeste 0 -- -- 84
2021-03-05 18:00:00 11.1 11 Nordeste 21 Nordeste 0 -- -- 84
2021-03-05 17:00:00 11.6 12 Nordeste 23 Nordeste 0 -- -- 84
2021-03-05 16:00:00 12.3 12 Nordeste 24 Norte 0 -- -- 81
2021-03-05 15:00:00 12.9 13 Nordeste 24 Norte 0 -- -- 81
2021-03-05 14:00:00 13.1 14 Nordeste 26 Nordeste 0 -- -- 83
2021-03-05 13:00:00 12.9 10 Nordeste 18 Nordeste 0 -- -- 84
2021-03-05 12:00:00 12 2 Sudeste 7 Sur 0 -- -- 91
2021-03-05 11:00:00 10.7 4 Sudoeste 7 Sudoeste 0 -- -- 95
2021-03-05 10:00:00 9.2 4 Sudoeste 6 Sudoeste 0 -- -- 98
2021-03-05 09:00:00 7.7 4 Sudoeste 14 Sudoeste 0 -- -- 99
2021-03-05 08:00:00 6.5 11 Sudoeste 15 Sudoeste 0 -- -- 99
2021-03-05 07:00:00 6.4 4 Oeste 10 Sudoeste 0 -- -- 99
2021-03-05 06:00:00 6.1 6 Sudoeste 10 Sudoeste 0 -- -- 98
2021-03-05 05:00:00 6.6 5 Sudoeste 12 Sudoeste 0 -- -- 98
2021-03-05 04:00:00 7.1 9 Sudoeste 14 Sudoeste 0 -- -- 98
2021-03-05 03:00:00 6.9 6 Sudoeste 9 Oeste 0 -- -- 96
2021-03-05 02:00:00 7.3 2 Oeste 10 Sudoeste 0 -- -- 96
2021-03-05 01:00:00 7.6 7 Sudoeste 9 Sudoeste 0 -- -- 95
2021-03-05 00:00:00 8.7 4 Sudoeste 6 Sudoeste 0 -- -- 93
2021-03-04 23:00:00 9.4 0 Calma 4 Nordeste 0 -- -- 91
2021-03-04 22:00:00 10.5 0 Calma 14 Nordeste 0 -- -- 88
2021-03-04 21:00:00 11.6 9 Nordeste 15 Norte 0 -- -- 82
2021-03-04 20:00:00 12 8 Nordeste 17 Nordeste 0 -- -- 84
2021-03-04 19:00:00 12.7 10 Nordeste 21 Nordeste 0 -- -- 86
2021-03-04 18:00:00 14.1 15 Norte 28 Norte 0 -- -- 81
2021-03-04 17:00:00 15.5 19 Norte 28 Norte 0 -- -- 73
2021-03-04 16:00:00 17.4 13 Nordeste 23 Norte 0 -- -- 65
2021-03-04 15:00:00 18.3 15 Norte 22 Norte 0 -- -- 62
2021-03-04 14:00:00 18.5 11 Nordeste 17 Nordeste 0 -- -- 63
2021-03-04 13:00:00 19 4 Sudoeste 15 Noroeste 0 -- -- 55
2021-03-04 12:00:00 17.6 10 Sudoeste 20 Sudoeste 0 -- -- 64
2021-03-04 11:00:00 15.7 5 Sudoeste 12 Sur 0 -- -- 72
2021-03-04 10:00:00 11.8 4 Sudoeste 9 Sudoeste 0 -- -- 88
2021-03-04 09:00:00 8.1 4 Sudoeste 9 Oeste 0 -- -- 97
2021-03-04 08:00:00 6.6 7 Sudoeste 12 Oeste 0 -- -- 98
2021-03-04 07:00:00 6.6 6 Sudoeste 9 Sudoeste 0 -- -- 98
2021-03-04 06:00:00 6.6 5 Sudoeste 10 Sudoeste 0 -- -- 98
2021-03-04 05:00:00 6.8 6 Sudoeste 10 Sudoeste 0 -- -- 97
2021-03-04 04:00:00 7.1 5 Sudoeste 10 Sudoeste 0 -- -- 97
2021-03-04 03:00:00 7.4 5 Sudoeste 9 Sudoeste 0 -- -- 95
2021-03-04 02:00:00 8.1 5 Sudoeste 8 Sudoeste 0 -- -- 95
2021-03-04 01:00:00 8.4 6 Oeste 9 Sudoeste 0 -- -- 94
2021-03-04 00:00:00 9 6 Sudoeste 9 Oeste 0 -- -- 92
2021-03-03 23:00:00 9.6 7 Sudoeste 9 Sudoeste 0 -- -- 91
2021-03-03 22:00:00 11.7 4 Nordeste 13 Norte 0 -- -- 85
2021-03-03 21:00:00 12.3 9 Nordeste 18 Norte 0 -- -- 85
2021-03-03 20:00:00 12.8 9 Norte 19 Nordeste 0 -- -- 80
2021-03-03 19:00:00 14.3 9 Nordeste 15 Nordeste 0 -- -- 72
2021-03-03 18:00:00 16 12 Norte 19 Norte 0 -- -- 68
2021-03-03 17:00:00 17.3 12 Nordeste 21 Nordeste 0 -- -- 64
2021-03-03 16:00:00 17.5 16 Norte 23 Norte 0 -- -- 64
2021-03-03 15:00:00 18.7 11 Nordeste 19 Nordeste 0 -- -- 64
2021-03-03 14:00:00 19.4 9 Norte 15 Sudoeste 0 -- -- 63
2021-03-03 13:00:00 19.5 7 Sudoeste 20 Oeste 0 -- -- 56
2021-03-03 12:00:00 17.9 12 Oeste 22 Sudoeste 0 -- -- 61
2021-03-03 11:00:00 16.8 6 Sur 13 Sur 0 -- -- 66
2021-03-03 10:00:00 14.2 4 Sur 8 Sur 0 -- -- 77
2021-03-03 09:00:00 10.8 0 Calma 10 Sudoeste 0 -- -- 81
2021-03-03 08:00:00 9.9 8 Sudoeste 12 Sudoeste 0 -- -- 83
2021-03-03 07:00:00 9.9 2 Sur 10 Sur 0 -- -- 80
2021-03-03 06:00:00 11.3 7 Sudoeste 10 Sudoeste 0 -- -- 75
2021-03-03 05:00:00 12.1 5 Sur 12 Sudoeste 0 -- -- 72
2021-03-03 04:00:00 12.2 8 Sudoeste 13 Oeste 0 -- -- 72
2021-03-03 03:00:00 12.6 3 Sur 17 Sudoeste 0 -- -- 69
2021-03-03 02:00:00 12.8 7 Sudoeste 16 Sudoeste 0 -- -- 70
2021-03-03 01:00:00 13.3 12 Sudoeste 21 Oeste 0 -- -- 66
2021-03-03 00:00:00 12.5 7 Sur 17 Sudoeste 0 -- -- 68
2021-03-02 23:00:00 13.4 7 Sur 23 Oeste 0 -- -- 67
2021-03-02 22:00:00 14.6 9 Sudoeste 19 Sudoeste 0 -- -- 62
2021-03-02 21:00:00 15.1 7 Sudoeste 18 Oeste 0 -- -- 60
2021-03-02 20:00:00 16.1 6 Sudoeste 20 Sur 0 -- -- 56
2021-03-02 19:00:00 16.7 12 Oeste 31 Sudoeste 0 -- -- 55
2021-03-02 18:00:00 17.7 15 Oeste 37 Sudoeste 0 -- -- 55
2021-03-02 17:00:00 19.8 8 Sudoeste 32 Sur 0 -- -- 50
2021-03-02 16:00:00 19.7 19 Sudoeste 35 Sudoeste 0 -- -- 49
2021-03-02 15:00:00 19.9 19 Sudoeste 36 Sudoeste 0 -- -- 48
2021-03-02 14:00:00 19.4 18 Sudoeste 35 Sur 0 -- -- 50
2021-03-02 13:00:00 19.1 20 Sudoeste 38 Oeste 0 -- -- 52
2021-03-02 12:00:00 17.9 18 Sudoeste 36 Sudoeste 0 -- -- 54
2021-03-02 11:00:00 17.2 18 Sudoeste 36 Oeste 0 -- -- 56
2021-03-02 10:00:00 15.7 16 Sudoeste 29 Sudoeste 0 -- -- 59
2021-03-02 09:00:00 13.9 20 Oeste 39 Oeste 0 -- -- 62
2021-03-02 08:00:00 12.9 21 Oeste 32 Sudoeste 0 -- -- 65
2021-03-02 07:00:00 13.4 15 Sudoeste 38 Sudoeste 0 -- -- 62
2021-03-02 06:00:00 13.6 20 Sudoeste 43 Oeste 0 -- -- 62
2021-03-02 05:00:00 13.9 24 Sudoeste 44 Oeste 0 -- -- 64
2021-03-02 04:00:00 14.1 27 Sudoeste 44 Sudoeste 0 -- -- 63
2021-03-02 03:00:00 14 20 Sudoeste 39 Oeste 0 -- -- 63
2021-03-02 02:00:00 14.1 22 Sudoeste 44 Oeste 0 -- -- 62
2021-03-02 01:00:00 14 20 Sudoeste 34 Oeste 0 -- -- 62
2021-03-02 00:00:00 13.8 17 Sudoeste 40 Sudoeste 0 -- -- 63
2021-03-01 23:00:00 13.5 11 Sudoeste 25 Sudoeste 0 -- -- 65
2021-03-01 22:00:00 14 13 Sudoeste 22 Sudoeste 0 -- -- 64
2021-03-01 21:00:00 14.2 11 Sudoeste 31 Sudoeste 0 -- -- 63
2021-03-01 20:00:00 14.3 7 Sudoeste 23 Sudoeste 0 -- -- 62
2021-03-01 19:00:00 14.6 4 Sur 31 Sudoeste 0 -- -- 60
2021-03-01 18:00:00 15 16 Sudoeste 32 Sudoeste 0 -- -- 61
2021-03-01 17:00:00 16 17 Sudoeste 34 Sudoeste 0 -- -- 59
2021-03-01 16:00:00 16.7 7 Sur 20 Sudoeste 0 -- -- 59
2021-03-01 15:00:00 15 12 Sudoeste 36 Sudoeste 0 -- -- 62
2021-03-01 14:00:00 15.4 14 Sudoeste 43 Sudoeste 0 -- -- 57
2021-03-01 13:00:00 16.8 17 Sudoeste 46 Sudoeste 0 -- -- 54
2021-03-01 12:00:00 16.2 23 Sudoeste 42 Oeste 0 -- -- 57
2021-03-01 11:00:00 15.5 20 Sudoeste 39 Sur 0 -- -- 58
2021-03-01 10:00:00 14.2 13 Sudoeste 28 Oeste 0 -- -- 62
2021-03-01 09:00:00 12.8 12 Sudoeste 26 Sudoeste 0 -- -- 64
2021-03-01 08:00:00 11.8 5 Sur 22 Sudoeste 0 -- -- 64
2021-03-01 07:00:00 12.3 10 Sudoeste 40 Sudoeste 0 -- -- 62
2021-03-01 06:00:00 12.2 21 Sudoeste 35 Oeste 0 -- -- 65
2021-03-01 05:00:00 11.7 19 Sudoeste 34 Sudoeste 0 -- -- 68
2021-03-01 04:00:00 10.3 12 Sudoeste 25 Sudoeste 0 -- -- 75
2021-03-01 03:00:00 7.6 6 Sudoeste 18 Oeste 0 -- -- 95
2021-03-01 02:00:00 8.2 7 Sudoeste 16 Sudoeste 0.2 -- -- 99
2021-03-01 01:00:00 8.6 3 Nordeste 8 Oeste 0 -- -- 97
2021-03-01 00:00:00 9.5 0 Calma 7 Este 0.2 -- -- 96
2021-02-28 23:00:00 10.2 3 Nordeste 7 Nordeste 1.6 -- -- 93
2021-02-28 22:00:00 10.6 5 Norte 10 Norte 0.6 -- -- 90
2021-02-28 21:00:00 10.6 4 Norte 17 Norte 0 -- -- 86
2021-02-28 20:00:00 10.2 6 Norte 11 Norte 0 -- -- 88
2021-02-28 19:00:00 10.2 5 Nordeste 16 Este 0 -- -- 88
2021-02-28 18:00:00 10.4 8 Este 18 Sudeste 0 -- -- 87
2021-02-28 17:00:00 11 10 Este 19 Este 0 -- -- 86
2021-02-28 16:00:00 10.9 4 Este 13 Este 0 -- -- 86
2021-02-28 15:00:00 11.5 6 Sudeste 20 Este 0 -- -- 77
2021-02-28 14:00:00 12.2 9 Este 17 Este 0 -- -- 74
2021-02-28 13:00:00 12 9 Nordeste 19 Nordeste 0 -- -- 82
2021-02-28 12:00:00 10.5 4 Nordeste 8 Nordeste 0 -- -- 89
2021-02-28 11:00:00 8.9 0 Calma 3 Sur 0 -- -- 94
2021-02-28 10:00:00 7.7 2 Sudoeste 4 Sur 0 -- -- 99
2021-02-28 09:00:00 6 2 Sudoeste 6 Sudoeste 0 -- -- 99
2021-02-28 08:00:00 5 3 Sudoeste 8 Sudoeste 0 -- -- 98
2021-02-28 07:00:00 4.9 5 Sudoeste 7 Sudoeste 0 -- -- 98
2021-02-28 06:00:00 5.4 4 Oeste 8 Oeste 0 -- -- 98
2021-02-28 05:00:00 5.6 2 Sudoeste 7 Sudoeste 0 -- -- 95
2021-02-28 04:00:00 6 4 Sudoeste 6 Sur 0 -- -- 95
2021-02-28 03:00:00 6.6 0 Calma 3 Norte 0 -- -- 92
2021-02-28 02:00:00 7.5 0 Calma 4 Sudoeste 0 -- -- 89
2021-02-28 01:00:00 8.1 2 Sudoeste 4 Sudoeste 0 -- -- 88
2021-02-28 00:00:00 8.2 0 Calma 4 Sur 0 -- -- 88
2021-02-27 23:00:00 8.3 3 Sur 7 Sudoeste 0 -- -- 88
2021-02-27 22:00:00 8.4 3 Sur 7 Sudoeste 0 -- -- 86
2021-02-27 21:00:00 8.6 4 Sudoeste 6 Sudoeste 0 -- -- 84
2021-02-27 20:00:00 9 0 Calma 12 Norte 0 -- -- 80
2021-02-27 19:00:00 9.5 8 Norte 15 Norte 0 -- -- 79
2021-02-27 18:00:00 10.8 8 Nordeste 19 Nordeste 0 -- -- 75
2021-02-27 17:00:00 11.2 11 Nordeste 22 Nordeste 0 -- -- 72
2021-02-27 16:00:00 11.9 13 Nordeste 24 Nordeste 0 -- -- 68
2021-02-27 15:00:00 12.3 12 Nordeste 18 Nordeste 0 -- -- 72
2021-02-27 14:00:00 10.3 9 Este 16 Este 0 -- -- 81
2021-02-27 13:00:00 10.3 10 Este 18 Sudeste 0 -- -- 83
2021-02-27 12:00:00 10.8 8 Este 18 Sudeste 0 -- -- 83
2021-02-27 11:00:00 9.9 7 Nordeste 17 Este 0 -- -- 87
2021-02-27 10:00:00 10.1 9 Este 22 Este 0 -- -- 88
2021-02-27 09:00:00 10.2 9 Este 24 Sudeste 0 -- -- 90
2021-02-27 08:00:00 10.6 11 Este 20 Este 0 -- -- 93
2021-02-27 07:00:00 10.8 10 Este 17 Este 0 -- -- 94
2021-02-27 06:00:00 10.5 0 Calma 5 Oeste 0 -- -- 95
2021-02-27 05:00:00 10.5 3 Sudoeste 5 Oeste 0 -- -- 94
2021-02-27 04:00:00 10.7 2 Sudoeste 4 Sudoeste 0 -- -- 92
2021-02-27 03:00:00 11.1 0 Calma 9 Norte 0 -- -- 90
2021-02-27 02:00:00 11.2 4 Nordeste 8 Norte 0 -- -- 89
2021-02-27 01:00:00 11.1 0 Calma 8 Sur 0 -- -- 89
2021-02-27 00:00:00 11.3 2 Norte 9 Nordeste 0 -- -- 89
2021-02-26 23:00:00 11.4 3 Nordeste 8 Nordeste 0 -- -- 90
2021-02-26 22:00:00 11.3 4 Nordeste 12 Nordeste 0 -- -- 94
2021-02-26 21:00:00 11.5 2 Nordeste 7 Este 0 -- -- 91
2021-02-26 20:00:00 11.7 4 Este 8 Nordeste 0 -- -- 89
2021-02-26 19:00:00 12 2 Este 14 Norte 0 -- -- 86
2021-02-26 18:00:00 12.3 6 Nordeste 17 Norte 0 -- -- 86
2021-02-26 17:00:00 13.1 10 Este 17 Este 0 -- -- 82
2021-02-26 16:00:00 13.2 8 Nordeste 14 Norte 0 -- -- 82
2021-02-26 15:00:00 13.4 7 Nordeste 15 Nordeste 0 -- -- 81
2021-02-26 14:00:00 13.6 9 Norte 13 Nordeste 0 -- -- 82
2021-02-26 13:00:00 13.7 4 Nordeste 8 Este 0 -- -- 83
2021-02-26 12:00:00 13 3 Nordeste 9 Norte 0 -- -- 85
2021-02-26 11:00:00 12.2 4 Nordeste 8 Nordeste 0 -- -- 89
2021-02-26 10:00:00 11.8 4 Nordeste 7 Nordeste 0 -- -- 90
2021-02-26 09:00:00 11.3 4 Nordeste 8 Nordeste 0 -- -- 92
2021-02-26 08:00:00 11.3 4 Nordeste 9 Nordeste 0 -- -- 92
2021-02-26 07:00:00 11.3 2 Nordeste 9 Nordeste 0 -- -- 93
2021-02-26 06:00:00 11.3 3 Nordeste 6 Norte 0 -- -- 95
2021-02-26 05:00:00 11.1 0 Calma 3 Sur 0 -- -- 95
2021-02-26 04:00:00 11.1 0 Calma 4 Norte 0 -- -- 94
2021-02-26 03:00:00 10.9 0 Calma 4 Norte 0 -- -- 95
2021-02-26 02:00:00 10.9 4 Oeste 6 Oeste 0 -- -- 94
2021-02-26 01:00:00 11.6 2 Sudoeste 4 Sur 0 -- -- 93
2021-02-26 00:00:00 11.9 2 Norte 8 Norte 0 -- -- 94
2021-02-25 23:00:00 12.1 6 Norte 10 Norte 0 -- -- 93
2021-02-25 22:00:00 12.1 7 Norte 10 Norte 0 -- -- 91
2021-02-25 21:00:00 12.2 3 Norte 5 Norte 0 -- -- 88
2021-02-25 20:00:00 12.5 0 Calma 7 Este 0 -- -- 85
2021-02-25 19:00:00 12.7 4 Nordeste 17 Norte 0 -- -- 85
2021-02-25 18:00:00 13.1 9 Nordeste 16 Norte 0 -- -- 85
2021-02-25 17:00:00 13.8 8 Nordeste 17 Norte 0 -- -- 82
2021-02-25 16:00:00 14.4 9 Nordeste 26 Norte 0 -- -- 81
2021-02-25 15:00:00 15.3 14 Norte 23 Norte 0 -- -- 77
2021-02-25 14:00:00 16.7 8 Noroeste 22 Noroeste 0 -- -- 61
2021-02-25 13:00:00 16 15 Noroeste 30 Noroeste 0 -- -- 60
2021-02-25 12:00:00 15.6 12 Noroeste 20 Noroeste 0 -- -- 59
2021-02-25 11:00:00 15 8 Noroeste 28 Oeste 0 -- -- 61
2021-02-25 10:00:00 14.3 15 Oeste 32 Oeste 0 -- -- 61
2021-02-25 09:00:00 13.5 9 Sudoeste 21 Sudoeste 0 -- -- 63
2021-02-25 08:00:00 13.1 7 Sudoeste 22 Sudoeste 0 -- -- 65
2021-02-25 07:00:00 14.1 17 Oeste 29 Oeste 0 -- -- 63
2021-02-25 06:00:00 13.4 13 Oeste 21 Oeste 0 -- -- 68
2021-02-25 05:00:00 13.4 13 Oeste 22 Oeste 0 -- -- 70
2021-02-25 04:00:00 13.4 10 Sudoeste 15 Sudoeste 0 -- -- 72
2021-02-25 03:00:00 14.5 6 Sudoeste 17 Oeste 0 -- -- 69
2021-02-25 02:00:00 14.6 6 Oeste 13 Sur 0 -- -- 69
2021-02-25 01:00:00 14.9 8 Sudoeste 20 Sudoeste 0 -- -- 70
2021-02-25 00:00:00 15.2 12 Oeste 19 Oeste 0 -- -- 69
2021-02-24 23:00:00 15.1 9 Oeste 13 Oeste 0 -- -- 67
2021-02-24 22:00:00 15.8 11 Sudoeste 27 Oeste 0 -- -- 65
2021-02-24 21:00:00 17 18 Oeste 36 Oeste 0 -- -- 60
2021-02-24 20:00:00 17.5 18 Sudoeste 33 Sudoeste 0 -- -- 58
2021-02-24 19:00:00 19 19 Sudoeste 32 Sudoeste 0 -- -- 54
2021-02-24 18:00:00 20.1 18 Sudoeste 37 Sudoeste 0 -- -- 51
2021-02-24 17:00:00 20.9 21 Sudoeste 36 Sudoeste 0 -- -- 47
2021-02-24 16:00:00 21.3 18 Sudoeste 33 Sudoeste 0 -- -- 47
2021-02-24 15:00:00 21.4 17 Sudoeste 39 Sudoeste 0 -- -- 47
2021-02-24 14:00:00 20.8 18 Sudoeste 40 Sudoeste 0 -- -- 51
2021-02-24 13:00:00 19.4 24 Sudoeste 40 Sudoeste 0 -- -- 52
2021-02-24 12:00:00 18.7 21 Sudoeste 40 Sudoeste 0 -- -- 52
2021-02-24 11:00:00 17.3 20 Sudoeste 37 Sudoeste 0 -- -- 55
2021-02-24 10:00:00 15.6 27 Oeste 39 Oeste 0 -- -- 59
2021-02-24 09:00:00 14.2 23 Oeste 37 Oeste 0 -- -- 63
2021-02-24 08:00:00 13.7 20 Oeste 37 Oeste 0 -- -- 65
2021-02-24 07:00:00 13.9 16 Oeste 32 Oeste 0 -- -- 63
2021-02-24 06:00:00 12.8 10 Sudoeste 22 Oeste 0 -- -- 68
2021-02-24 05:00:00 13.1 11 Sudoeste 23 Oeste 0 -- -- 68
2021-02-24 04:00:00 13.2 14 Sudoeste 23 Sudoeste 0 -- -- 68
2021-02-24 03:00:00 13.7 15 Oeste 24 Oeste 0 -- -- 67
2021-02-24 02:00:00 13.5 15 Oeste 25 Oeste 0 -- -- 68
2021-02-24 01:00:00 14 19 Oeste 28 Oeste 0 -- -- 66
2021-02-24 00:00:00 14.3 20 Oeste 29 Oeste 0 -- -- 64
2021-02-23 23:00:00 14.6 19 Oeste 32 Oeste 0 -- -- 62
2021-02-23 22:00:00 14.2 15 Oeste 24 Oeste 0 -- -- 62
2021-02-23 21:00:00 14.4 15 Oeste 27 Oeste 0 -- -- 61
2021-02-23 20:00:00 15.2 17 Sudoeste 31 Sudoeste 0 -- -- 57
2021-02-23 19:00:00 16.6 15 Sudoeste 30 Sudoeste 0 -- -- 51
2021-02-23 18:00:00 18.2 14 Sudoeste 37 Sudoeste 0 -- -- 48
2021-02-23 17:00:00 19.1 20 Sudoeste 43 Sudoeste 0 -- -- 47
2021-02-23 16:00:00 19.2 23 Sudoeste 43 Sudoeste 0 -- -- 47
2021-02-23 15:00:00 19.1 22 Sudoeste 47 Sudoeste 0 -- -- 47
2021-02-23 14:00:00 18.5 23 Sudoeste 43 Sudoeste 0 -- -- 50
2021-02-23 13:00:00 17.7 20 Sudoeste 39 Sudoeste 0 -- -- 52
2021-02-23 12:00:00 17 17 Sudoeste 33 Sudoeste 0 -- -- 54
2021-02-23 11:00:00 15.5 17 Sudoeste 33 Oeste 0 -- -- 57
2021-02-23 10:00:00 13.2 19 Oeste 35 Sudoeste 0 -- -- 65
2021-02-23 09:00:00 11.4 15 Oeste 26 Oeste 0 -- -- 70
2021-02-23 08:00:00 10.3 19 Oeste 30 Oeste 0 -- -- 74
2021-02-23 07:00:00 9.2 13 Sudoeste 24 Sudoeste 0 -- -- 81
2021-02-23 06:00:00 7.6 13 Sudoeste 19 Oeste 0 -- -- 92
2021-02-23 05:00:00 6.9 9 Sudoeste 13 Sudoeste 0 -- -- 95
2021-02-23 04:00:00 5.8 9 Sudoeste 12 Sudoeste 0 -- -- 99
2021-02-23 03:00:00 5.1 7 Sudoeste 13 Sur 0 -- -- 100
2021-02-23 02:00:00 5.4 6 Sudoeste 12 Oeste 0 -- -- 99
2021-02-23 01:00:00 5.6 6 Sur 12 Oeste 0 -- -- 97
2021-02-23 00:00:00 6.5 6 Sudoeste 8 Sudoeste 0 -- -- 98
2021-02-22 23:00:00 7.2 6 Oeste 8 Sudoeste 0 -- -- 97
2021-02-22 22:00:00 8.6 2 Oeste 6 Oeste 0 -- -- 95
2021-02-22 21:00:00 9.4 3 Sur 8 Sudoeste 0 -- -- 94
2021-02-22 20:00:00 10.1 3 Sudoeste 7 Sudoeste 0 -- -- 93
2021-02-22 19:00:00 10.6 4 Oeste 8 Sudoeste 0 -- -- 90
2021-02-22 18:00:00 11.5 3 Oeste 8 Noroeste 0 -- -- 85
2021-02-22 17:00:00 12 0 Calma 14 Noroeste 0 -- -- 80
2021-02-22 16:00:00 11.6 6 Norte 21 Noroeste 0 -- -- 82
2021-02-22 15:00:00 12.3 5 Norte 17 Norte 0 -- -- 80
2021-02-22 14:00:00 11.4 3 Sur 21 Noroeste 0.6 -- -- 92
2021-02-22 13:00:00 11.4 9 Noroeste 16 Oeste 0 -- -- 88
2021-02-22 12:00:00 9.5 6 Sudoeste 14 Oeste 2.2 -- -- 98
2021-02-22 11:00:00 9.3 8 Sudoeste 20 Oeste 1.2 -- -- 97
2021-02-22 10:00:00 8.8 7 Sudoeste 12 Sudoeste 2.2 -- -- 98
2021-02-22 09:00:00 8.5 3 Sur 11 Sur 1.2 -- -- 96
2021-02-22 08:00:00 8.7 3 Oeste 16 Noroeste 2 -- -- 91
2021-02-22 07:00:00 8.7 6 Noroeste 17 Norte 0.6 -- -- 90
2021-02-22 06:00:00 8.3 5 Norte 19 Noroeste 0.8 -- -- 94
2021-02-22 05:00:00 7.9 10 Oeste 18 Oeste 2.6 -- -- 96
2021-02-22 04:00:00 8 10 Oeste 26 Oeste 1.4 -- -- 94
2021-02-22 03:00:00 7.7 9 Sudoeste 16 Sudoeste 1.8 -- -- 97
2021-02-22 02:00:00 8 9 Oeste 23 Oeste 1.8 -- -- 94
2021-02-22 01:00:00 7.9 10 Oeste 40 Noroeste 3 -- -- 93
2021-02-22 00:00:00 8.2 8 Oeste 24 Norte 4.4 -- -- 90
2021-02-21 23:00:00 9 10 Norte 31 Norte 4.6 -- -- 92
2021-02-21 22:00:00 9.5 5 Noroeste 19 Norte 4.4 -- -- 93
2021-02-21 21:00:00 10.2 4 Sur 13 Norte 3.4 -- -- 95
2021-02-21 20:00:00 10.7 7 Nordeste 19 Nordeste 1.2 -- -- 92
2021-02-21 19:00:00 11.9 14 Norte 27 Norte 0 -- -- 86
2021-02-21 18:00:00 15.2 9 Norte 21 Norte 0 -- -- 68
2021-02-21 17:00:00 15.9 14 Sudoeste 28 Oeste 0 -- -- 59
2021-02-21 16:00:00 16.2 17 Oeste 35 Sudoeste 0 -- -- 56
2021-02-21 15:00:00 18 7 Sudoeste 26 Sudeste 0 -- -- 48
2021-02-21 14:00:00 19.2 6 Sudoeste 21 Sudeste 0 -- -- 43
2021-02-21 13:00:00 18.4 9 Sudeste 22 Sur 0 -- -- 41
2021-02-21 12:00:00 18.5 13 Sur 32 Sur 0 -- -- 41
2021-02-21 11:00:00 16.8 5 Sur 27 Sudeste 0 -- -- 44
2021-02-21 10:00:00 16 7 Sur 32 Sudeste 0 -- -- 43
2021-02-21 09:00:00 15.3 12 Sur 29 Sudeste 0 -- -- 46
2021-02-21 08:00:00 14.9 6 Sur 22 Sur 0 -- -- 47
2021-02-21 07:00:00 14.8 10 Sur 34 Sudoeste 0 -- -- 46
2021-02-21 06:00:00 14.6 9 Sur 20 Sur 0 -- -- 48
2021-02-21 05:00:00 14.6 8 Sur 21 Sudoeste 0 -- -- 48
2021-02-21 04:00:00 15.9 15 Sudoeste 30 Sur 0 -- -- 46
2021-02-21 03:00:00 16 3 Sudoeste 26 Sudoeste 0 -- -- 47
2021-02-21 02:00:00 17.3 14 Sudoeste 31 Sudoeste 0 -- -- 44
2021-02-21 01:00:00 17.5 8 Sudoeste 21 Sudoeste 0 -- -- 43
2021-02-21 00:00:00 17.6 10 Sudoeste 29 Sudoeste 0 -- -- 44
2021-02-20 23:00:00 18.2 13 Oeste 40 Sudoeste 0 -- -- 43
2021-02-20 22:00:00 19.5 18 Sudoeste 42 Sudoeste 0 -- -- 40
2021-02-20 21:00:00 19.7 13 Sudoeste 41 Sudoeste 0 -- -- 41
2021-02-20 20:00:00 19.8 18 Sudoeste 39 Sudoeste 0 -- -- 40
2021-02-20 19:00:00 20 16 Sudoeste 49 Sudoeste 0 -- -- 39
2021-02-20 18:00:00 21.3 20 Sudoeste 43 Sudoeste 0 -- -- 35
2021-02-20 17:00:00 21.7 20 Sudoeste 45 Oeste 0 -- -- 33
2021-02-20 16:00:00 21.6 21 Sudoeste 48 Sudoeste 0 -- -- 33
2021-02-20 15:00:00 21.9 21 Sudoeste 40 Sudoeste 0 -- -- 33
2021-02-20 14:00:00 21.9 16 Sudoeste 46 Sudoeste 0 -- -- 36
2021-02-20 13:00:00 20.3 28 Sudoeste 54 Sudoeste 0 -- -- 37
2021-02-20 12:00:00 20.3 22 Sudoeste 57 Sudoeste 0 -- -- 39
2021-02-20 11:00:00 18.7 27 Sudoeste 58 Sudoeste 0 -- -- 37
2021-02-20 10:00:00 18.2 31 Sudoeste 59 Sudoeste 0 -- -- 37
2021-02-20 09:00:00 17.8 31 Sudoeste 58 Sudoeste 0 -- -- 38
2021-02-20 08:00:00 17.9 27 Oeste 48 Sudoeste 0 -- -- 35
2021-02-20 07:00:00 17.7 22 Sudoeste 45 Sudoeste 0 -- -- 35
2021-02-20 06:00:00 16.9 9 Sudoeste 26 Sur 0 -- -- 38
2021-02-20 05:00:00 17.7 13 Sudoeste 30 Oeste 0 -- -- 36
2021-02-20 04:00:00 17.8 13 Sudoeste 30 Sudoeste 0 -- -- 36
2021-02-20 03:00:00 18 14 Sudoeste 41 Sudoeste 0 -- -- 37
2021-02-20 02:00:00 18.1 21 Sudoeste 36 Sudoeste 0 -- -- 37
2021-02-20 01:00:00 18.4 18 Sudoeste 37 Sudoeste 0 -- -- 36
2021-02-20 00:00:00 18.4 15 Sudoeste 33 Sudoeste 0 -- -- 39
2021-02-19 23:00:00 18.6 14 Oeste 27 Oeste 0 -- -- 39
2021-02-19 22:00:00 19 11 Sudoeste 23 Sudoeste 0 -- -- 40
2021-02-19 21:00:00 19 10 Sudoeste 18 Sudoeste 0 -- -- 38
2021-02-19 20:00:00 19.3 7 Sudoeste 12 Sudoeste 0 -- -- 37
2021-02-19 19:00:00 20 4 Sudoeste 31 Oeste 0 -- -- 34
2021-02-19 18:00:00 20.5 17 Oeste 44 Sudoeste 0 -- -- 33
2021-02-19 17:00:00 21.1 21 Sudoeste 39 Oeste 0 -- -- 32
2021-02-19 16:00:00 20.7 18 Sudoeste 45 Sudoeste 0 -- -- 35
2021-02-19 15:00:00 20.9 26 Oeste 51 Sudoeste 0 -- -- 37
2021-02-19 14:00:00 19.4 23 Sudoeste 57 Oeste 0 -- -- 45
2021-02-19 13:00:00 19.1 27 Oeste 61 Sudoeste 0 -- -- 47
2021-02-19 12:00:00 19.6 28 Oeste 67 Oeste 0 -- -- 43
2021-02-19 11:00:00 18.3 25 Oeste 55 Sudoeste 0 -- -- 49
2021-02-19 10:00:00 17 19 Sudoeste 37 Oeste 0 -- -- 53
2021-02-19 09:00:00 15.2 12 Sudoeste 29 Sudoeste 0 -- -- 57
2021-02-19 08:00:00 14.3 12 Sudoeste 30 Sudoeste 0 -- -- 60
2021-02-19 07:00:00 14.9 17 Sudoeste 39 Oeste 0 -- -- 62
2021-02-19 06:00:00 14.1 12 Sudoeste 30 Sudoeste 0 -- -- 67
2021-02-19 05:00:00 13 14 Sudoeste 32 Oeste 0 -- -- 73
2021-02-19 04:00:00 9.4 11 Sudoeste 20 Sudoeste 0 -- -- 98
2021-02-19 03:00:00 6.7 5 Sudoeste 10 Sur 0 -- -- 99
2021-02-19 02:00:00 6.8 8 Sudoeste 10 Oeste 0 -- -- 98
2021-02-19 01:00:00 7.3 7 Sudoeste 12 Oeste 0 -- -- 97
2021-02-19 00:00:00 8.1 4 Sudoeste 5 Sudoeste 0 -- -- 96
2021-02-18 23:00:00 8.9 0 Calma 4 Sur 0 -- -- 94
2021-02-18 22:00:00 10 3 Sudoeste 5 Sudoeste 0 -- -- 92
2021-02-18 21:00:00 10.6 2 Sudoeste 5 Sudeste 0 -- -- 91
2021-02-18 20:00:00 10.7 4 Sudoeste 6 Sudoeste 0 -- -- 90
2021-02-18 19:00:00 11.1 3 Nordeste 5 Nordeste 0 -- -- 84
2021-02-18 18:00:00 11.5 3 Nordeste 16 Nordeste 0 -- -- 80
2021-02-18 17:00:00 12.1 6 Nordeste 16 Nordeste 0 -- -- 82
2021-02-18 16:00:00 12.4 9 Nordeste 17 Nordeste 0 -- -- 80
2021-02-18 15:00:00 13 7 Nordeste 19 Nordeste 0 -- -- 81
2021-02-18 14:00:00 13.1 12 Nordeste 23 Nordeste 0 -- -- 81
2021-02-18 13:00:00 14.5 9 Nordeste 26 Este 0 -- -- 76
2021-02-18 12:00:00 15.4 15 Nordeste 40 Noroeste 0 -- -- 73
2021-02-18 11:00:00 18.3 16 Oeste 27 Sudoeste 0 -- -- 49
2021-02-18 10:00:00 16 11 Sudoeste 32 Sudoeste 0 -- -- 51
2021-02-18 09:00:00 15.4 21 Sudoeste 35 Sudoeste 0 -- -- 52
2021-02-18 08:00:00 15.5 19 Oeste 51 Oeste 0 -- -- 52
2021-02-18 07:00:00 16.1 29 Oeste 53 Oeste 0 -- -- 50
2021-02-18 06:00:00 16.3 23 Sudoeste 50 Sudoeste 0 -- -- 50
2021-02-18 05:00:00 16.9 30 Oeste 47 Oeste 0 -- -- 48
2021-02-18 04:00:00 17.3 25 Oeste 41 Oeste 0 -- -- 49
2021-02-18 03:00:00 17.3 26 Oeste 44 Oeste 0 -- -- 52
2021-02-18 02:00:00 17.6 23 Sudoeste 46 Oeste 0 -- -- 51
2021-02-18 01:00:00 16.9 8 Sur 30 Oeste 0 -- -- 53
2021-02-18 00:00:00 16.9 6 Noroeste 16 Sur 0 -- -- 56
2021-02-17 23:00:00 17.2 6 Sudoeste 22 Oeste 0 -- -- 56
2021-02-17 22:00:00 17.4 15 Sudoeste 26 Sudoeste 0 -- -- 56
2021-02-17 21:00:00 16.5 8 Sudoeste 18 Sudoeste 0 -- -- 63
2021-02-17 20:00:00 17.1 10 Sudoeste 22 Oeste 0 -- -- 59
2021-02-17 19:00:00 17.1 12 Sudoeste 20 Sudoeste 0 -- -- 60
2021-02-17 18:00:00 17.5 13 Oeste 25 Sudoeste 0 -- -- 57
2021-02-17 17:00:00 18.3 3 Sudoeste 36 Sudoeste 0 -- -- 58
2021-02-17 16:00:00 18.4 18 Sudoeste 43 Oeste 0 -- -- 53
2021-02-17 15:00:00 19.8 21 Oeste 44 Sudoeste 0 -- -- 50
2021-02-17 14:00:00 19.2 20 Oeste 45 Oeste 0 -- -- 50
2021-02-17 13:00:00 19.1 22 Oeste 39 Oeste 0 -- -- 51
2021-02-17 12:00:00 18.1 10 Oeste 27 Oeste 0 -- -- 60
2021-02-17 11:00:00 15.8 8 Sudoeste 15 Sudoeste 0 -- -- 68
2021-02-17 10:00:00 9.7 4 Sudoeste 9 Sudoeste 0 -- -- 100
2021-02-17 09:00:00 6.8 6 Sudoeste 14 Oeste 0 -- -- 100
2021-02-17 08:00:00 6.1 3 Sudoeste 15 Oeste 0 -- -- 100
2021-02-17 07:00:00 6.4 11 Sudoeste 14 Sudoeste 0 -- -- 99
2021-02-17 06:00:00 6 8 Sudoeste 10 Sudoeste 0 -- -- 100
2021-02-17 05:00:00 6.1 5 Sudoeste 10 Sudoeste 0.2 -- -- 99
2021-02-17 04:00:00 6.4 5 Sudoeste 12 Sudoeste 0 -- -- 99
2021-02-17 03:00:00 6.5 8 Sudoeste 10 Sudoeste 0 -- -- 98
2021-02-17 02:00:00 7.1 4 Sudoeste 10 Oeste 0 -- -- 99
2021-02-17 01:00:00 7.4 8 Sudoeste 11 Sudoeste 0 -- -- 97
2021-02-17 00:00:00 8.5 3 Sudoeste 8 Sudoeste 0 -- -- 97
2021-02-16 23:00:00 9.3 3 Oeste 10 Sudoeste 0 -- -- 95
2021-02-16 22:00:00 10.4 5 Sudoeste 6 Sudoeste 0 -- -- 93
2021-02-16 21:00:00 11.1 0 Calma 9 Oeste 0.2 -- -- 90
2021-02-16 20:00:00 12.2 4 Sudoeste 6 Oeste 0 -- -- 81
2021-02-16 19:00:00 12.7 3 Sudoeste 5 Sudoeste 0 -- -- 78
2021-02-16 18:00:00 13 3 Sudoeste 10 Oeste 0 -- -- 78
2021-02-16 17:00:00 13.1 7 Oeste 10 Oeste 0 -- -- 76
2021-02-16 16:00:00 13.2 5 Sur 8 Oeste 0 -- -- 74
2021-02-16 15:00:00 14.1 3 Sur 15 Noroeste 0 -- -- 70
2021-02-16 14:00:00 15.7 8 Nordeste 51 Noroeste 0 -- -- 67
2021-02-16 13:00:00 18.3 21 Noroeste 57 Oeste 0 -- -- 54
2021-02-16 12:00:00 16.7 28 Oeste 53 Oeste 0 -- -- 55
2021-02-16 11:00:00 14.9 23 Sudoeste 39 Sudoeste 0 -- -- 56
2021-02-16 10:00:00 14 17 Sudoeste 38 Oeste 0 -- -- 60
2021-02-16 09:00:00 13 18 Oeste 32 Oeste 0 -- -- 62
2021-02-16 08:00:00 13.2 11 Oeste 26 Oeste 0 -- -- 59
2021-02-16 07:00:00 13.2 15 Oeste 36 Sudoeste 0 -- -- 60
2021-02-16 06:00:00 13.5 21 Oeste 30 Oeste 0 -- -- 60
2021-02-16 05:00:00 13.6 19 Oeste 43 Oeste 0 -- -- 60
2021-02-16 04:00:00 14.3 27 Oeste 47 Oeste 0 -- -- 58
2021-02-16 03:00:00 15.1 32 Oeste 46 Oeste 0 -- -- 56
2021-02-16 02:00:00 14.8 30 Oeste 46 Oeste 0 -- -- 57
2021-02-16 01:00:00 14.5 23 Oeste 41 Oeste 0 -- -- 58
2021-02-16 00:00:00 15 23 Oeste 49 Oeste 0 -- -- 56
2021-02-15 23:00:00 14.5 34 Oeste 53 Oeste 0 -- -- 58
2021-02-15 22:00:00 14.1 23 Oeste 45 Oeste 0 -- -- 61
2021-02-15 21:00:00 13.3 14 Sudoeste 33 Oeste 0 -- -- 64
2021-02-15 20:00:00 13.1 8 Sur 26 Sudoeste 0 -- -- 64
2021-02-15 19:00:00 14 14 Sudoeste 41 Oeste 0 -- -- 60
2021-02-15 18:00:00 15.7 23 Oeste 42 Oeste 0 -- -- 56
2021-02-15 17:00:00 18 23 Sudoeste 43 Oeste 0 -- -- 50
2021-02-15 16:00:00 18.6 26 Oeste 41 Sudoeste 0 -- -- 49
2021-02-15 15:00:00 18.8 17 Sudoeste 33 Oeste 0 -- -- 49
2021-02-15 14:00:00 18.6 20 Oeste 37 Oeste 0 -- -- 54
2021-02-15 13:00:00 16.6 23 Oeste 41 Oeste 0 -- -- 57
2021-02-15 12:00:00 16.1 19 Oeste 34 Oeste 0 -- -- 57
2021-02-15 11:00:00 15.2 19 Oeste 31 Oeste 0 -- -- 59
2021-02-15 10:00:00 13.3 19 Oeste 30 Oeste 0 -- -- 63
2021-02-15 09:00:00 11.9 18 Oeste 31 Oeste 0 -- -- 68
2021-02-15 08:00:00 10.9 7 Sudoeste 26 Oeste 0 -- -- 71
2021-02-15 07:00:00 11.7 14 Sudoeste 27 Oeste 0 -- -- 68
2021-02-15 06:00:00 11.9 14 Oeste 28 Oeste 0 -- -- 68
2021-02-15 05:00:00 11.9 14 Oeste 23 Oeste 0 -- -- 69
2021-02-15 04:00:00 12.1 4 Sudoeste 27 Oeste 0 -- -- 68
2021-02-15 03:00:00 13.1 16 Oeste 34 Oeste 0 -- -- 66
2021-02-15 02:00:00 13.7 20 Oeste 35 Oeste 0 -- -- 64
2021-02-15 01:00:00 14 21 Oeste 41 Oeste 0 -- -- 64
2021-02-15 00:00:00 14.5 26 Oeste 39 Oeste 0 -- -- 62
2021-02-14 23:00:00 14.5 16 Sudoeste 34 Sudoeste 0 -- -- 62
2021-02-14 22:00:00 14.9 21 Oeste 37 Oeste 0 -- -- 62
2021-02-14 21:00:00 15.3 19 Oeste 38 Oeste 0 -- -- 61
2021-02-14 20:00:00 15.4 21 Oeste 35 Oeste 0 -- -- 62
2021-02-14 19:00:00 15.6 22 Oeste 39 Oeste 0 -- -- 62
2021-02-14 18:00:00 16.4 17 Oeste 29 Oeste 0 -- -- 60
2021-02-14 17:00:00 17.8 14 Oeste 33 Sudoeste 0 -- -- 57
2021-02-14 16:00:00 18.7 18 Oeste 39 Oeste 0 -- -- 53
2021-02-14 15:00:00 18.8 21 Oeste 54 Oeste 0 -- -- 51
2021-02-14 14:00:00 18.1 37 Oeste 57 Oeste 0 -- -- 52
2021-02-14 13:00:00 17.7 33 Sudoeste 52 Sudoeste 0 -- -- 57
2021-02-14 12:00:00 16.9 18 Oeste 35 Oeste 0 -- -- 63
2021-02-14 11:00:00 13.9 13 Sudoeste 24 Sudoeste 0 -- -- 79
2021-02-14 10:00:00 9 6 Sudoeste 11 Oeste 0 -- -- 100
2021-02-14 09:00:00 6 10 Oeste 12 Oeste 0 -- -- 100
2021-02-14 08:00:00 4.8 10 Oeste 13 Oeste 0 -- -- 100
2021-02-14 07:00:00 4.8 7 Sudoeste 14 Oeste 0 -- -- 100
2021-02-14 06:00:00 4.9 8 Oeste 11 Oeste 0 -- -- 100
2021-02-14 05:00:00 5.3 6 Sudoeste 9 Oeste 0.2 -- -- 100
2021-02-14 04:00:00 4.8 5 Sudoeste 10 Sudoeste 0 -- -- 99
2021-02-14 03:00:00 5 7 Sudoeste 10 Oeste 0 -- -- 99
2021-02-14 02:00:00 5.3 7 Oeste 9 Oeste 0 -- -- 99
2021-02-14 01:00:00 5.9 4 Sudoeste 10 Oeste 0 -- -- 99
2021-02-14 00:00:00 6.3 4 Sudoeste 8 Oeste 0 -- -- 99
2021-02-13 23:00:00 7 7 Sudoeste 10 Oeste 0 -- -- 98
2021-02-13 22:00:00 7.6 4 Sudoeste 10 Oeste 0 -- -- 97
2021-02-13 21:00:00 8.7 3 Sur 6 Oeste 0 -- -- 95
2021-02-13 20:00:00 9.9 0 Calma 4 Nordeste 0 -- -- 92
2021-02-13 19:00:00 10.9 2 Este 10 Nordeste 0 -- -- 86
2021-02-13 18:00:00 12.3 7 Nordeste 17 Nordeste 0 -- -- 83
2021-02-13 17:00:00 14.3 10 Nordeste 19 Nordeste 0 -- -- 75
2021-02-13 16:00:00 15.5 5 Nordeste 11 Nordeste 0 -- -- 74
2021-02-13 15:00:00 14.1 3 Sur 10 Sudoeste 0 -- -- 77
2021-02-13 14:00:00 13.7 7 Sudoeste 12 Oeste 0 -- -- 77
2021-02-13 13:00:00 14.1 8 Oeste 12 Oeste 0 -- -- 80
2021-02-13 08:00:00 -- -- -- -- -- -- -- -- --
2021-02-13 07:00:00 6.6 8 Oeste 10 Oeste 0 -- -- 100
2021-02-13 06:00:00 7 4 Sudoeste 10 Oeste 0 -- -- 100
2021-02-13 05:00:00 7.4 9 Oeste 10 Oeste 0 -- -- 100
2021-02-13 04:00:00 7.8 5 Sudoeste 8 Sudoeste 0 -- -- 100
2021-02-13 03:00:00 8.2 4 Sudoeste 10 Sudoeste 0 -- -- 98
2021-02-13 02:00:00 8.8 8 Oeste 13 Sudoeste 0 -- -- 98
2021-02-13 01:00:00 9.8 0 Calma 13 Oeste 0 -- -- 97
2021-02-13 00:00:00 10.3 7 Oeste 13 Oeste 0 -- -- 96
2021-02-12 23:00:00 10.6 6 Oeste 14 Oeste 0 -- -- 96
2021-02-12 22:00:00 11.4 4 Sur 9 Norte 0 -- -- 91
2021-02-12 21:00:00 11.9 0 Calma 10 Sudoeste 0 -- -- 91
2021-02-12 20:00:00 12.3 6 Oeste 13 Sudoeste 0 -- -- 87
2021-02-12 19:00:00 12.5 5 Este 37 Nordeste 0 -- -- 86
2021-02-12 18:00:00 12.6 17 Norte 47 Nordeste 0.6 -- -- 87
2021-02-12 17:00:00 13.3 26 Nordeste 51 Nordeste 0.2 -- -- 84
2021-02-12 16:00:00 13.1 30 Nordeste 51 Nordeste 0.4 -- -- 88
2021-02-12 15:00:00 12.9 26 Norte 56 Norte 0.6 -- -- 91
2021-02-12 14:00:00 12.6 11 Norte 42 Noroeste 3.2 -- -- 92
2021-02-12 13:00:00 12.6 16 Norte 46 Noroeste 2.8 -- -- 90
2021-02-12 12:00:00 12.3 10 Norte 51 Norte 2.2 -- -- 92
2021-02-12 11:00:00 12.6 16 Norte 48 Norte 2.4 -- -- 89
2021-02-12 10:00:00 12.4 8 Oeste 18 Noroeste 2.4 -- -- 98
2021-02-12 09:00:00 12.4 10 Sudoeste 14 Sudoeste 0.4 -- -- 96
2021-02-12 08:00:00 12.3 5 Sudoeste 11 Sudoeste 0.2 -- -- 96
2021-02-12 07:00:00 12.8 5 Nordeste 39 Norte 0.2 -- -- 91
2021-02-12 06:00:00 13.3 14 Noroeste 51 Norte 1.2 -- -- 91
2021-02-12 05:00:00 15.9 8 Sudoeste 18 Sudoeste 0 -- -- 70
2021-02-12 04:00:00 15.5 10 Oeste 21 Oeste 0 -- -- 72
2021-02-12 03:00:00 13.5 10 Sudoeste 18 Oeste 0 -- -- 82
2021-02-12 02:00:00 10.7 8 Sudoeste 15 Oeste 0 -- -- 94
2021-02-12 01:00:00 10.2 13 Oeste 15 Oeste 0 -- -- 94
2021-02-12 00:00:00 10.1 6 Oeste 14 Sudoeste 0 -- -- 95
2021-02-11 23:00:00 10.7 4 Sudoeste 9 Oeste 0 -- -- 94
2021-02-11 22:00:00 11.2 6 Sudoeste 8 Oeste 0 -- -- 93
2021-02-11 21:00:00 12.2 0 Calma 15 Norte 0 -- -- 91
2021-02-11 20:00:00 12.8 7 Nordeste 16 Nordeste 0 -- -- 89
2021-02-11 19:00:00 14.2 9 Nordeste 15 Nordeste 0 -- -- 82
2021-02-11 18:00:00 17.8 4 Sudoeste 25 Oeste 0 -- -- 64
2021-02-11 17:00:00 19.1 8 Oeste 19 Sudoeste 0 -- -- 60
2021-02-11 16:00:00 19.1 12 Oeste 24 Oeste 0 -- -- 59
2021-02-11 15:00:00 19.1 11 Oeste 20 Oeste 0 -- -- 60
2021-02-11 14:00:00 19.2 6 Sudoeste -- -- -- -- -- 63
2021-02-11 13:00:00 18.6 11 Sudoeste 22 Oeste 0 -- -- 62
2021-02-11 12:00:00 16.2 9 Sudoeste 22 Sudoeste 0 -- -- 69
2021-02-11 11:00:00 12.6 3 Sur 10 Sudoeste 0 -- -- 86
2021-02-11 10:00:00 9.6 6 Sur 10 Sudoeste 0 -- -- 92
2021-02-11 09:00:00 7.1 8 Oeste 11 Oeste 0 -- -- 97
2021-02-11 08:00:00 5.8 8 Oeste 12 Oeste 0 -- -- 100
2021-02-11 07:00:00 4.6 5 Sudoeste 12 Sudoeste 0 -- -- 100
2021-02-11 06:00:00 4.3 7 Sudoeste 13 Sudoeste 0 -- -- 99
2021-02-11 05:00:00 4.1 10 Oeste 12 Oeste 0 -- -- 98
2021-02-11 04:00:00 4.9 5 Oeste 10 Sudoeste 0 -- -- 97
2021-02-11 03:00:00 5.4 7 Oeste 10 Oeste 0 -- -- 96
2021-02-11 02:00:00 6.4 7 Oeste 10 Sudoeste 0 -- -- 94
2021-02-11 01:00:00 7.3 9 Sudoeste 11 Sudoeste 0 -- -- 95
2021-02-11 00:00:00 8.1 6 Sudoeste 9 Oeste 0 -- -- 93
2021-02-10 23:00:00 9 6 Sudoeste 9 Sudoeste 0 -- -- 91
2021-02-10 22:00:00 9.8 5 Sudoeste 11 Oeste 0 -- -- 87
2021-02-10 21:00:00 10 8 Oeste 18 Sudoeste 0 -- -- 85
2021-02-10 20:00:00 10.8 6 Norte 20 Norte 0 -- -- 80
2021-02-10 19:00:00 11.2 13 Norte 27 Noroeste 0 -- -- 78
2021-02-10 18:00:00 11.9 10 Noroeste 34 Norte 0 -- -- 73
2021-02-10 17:00:00 12.5 14 Nordeste 30 Norte 0 -- -- 73
2021-02-10 16:00:00 12.3 12 Norte 27 Norte 0 -- -- 74
2021-02-10 15:00:00 11.6 9 Norte 43 Norte 0 -- -- 77
2021-02-10 14:00:00 11.2 5 Norte 32 Noroeste 0.2 -- -- 80
2021-02-10 13:00:00 10.6 8 Norte 25 Noroeste 0.4 -- -- 82
2021-02-10 12:00:00 10.2 7 Noroeste 31 Noroeste 0.4 -- -- 79
2021-02-10 11:00:00 9.5 7 Oeste 19 Oeste 0.4 -- -- 83
2021-02-10 10:00:00 8.5 8 Sudoeste 13 Sur 0 -- -- 91
2021-02-10 09:00:00 7.9 9 Sudoeste 15 Sudoeste 0 -- -- 90
2021-02-10 08:00:00 8.6 9 Oeste 26 Noroeste 0.6 -- -- 86
2021-02-10 07:00:00 6.8 7 Oeste 10 Oeste 0 -- -- 86
2021-02-10 06:00:00 7.1 6 Sudoeste 8 Oeste 0 -- -- 83
2021-02-10 05:00:00 7.7 0 Calma 6 Norte 0 -- -- 82
2021-02-10 04:00:00 8.5 3 Nordeste 8 Norte 0 -- -- 81
2021-02-10 03:00:00 9.1 3 Sudoeste 15 Sudoeste 0 -- -- 66
2021-02-10 02:00:00 9.7 10 Sudoeste 26 Sudoeste 0 -- -- 65
2021-02-10 01:00:00 10.1 13 Sudoeste 30 Sudoeste 0 -- -- 65
2021-02-10 00:00:00 10.6 14 Oeste 24 Oeste 0 -- -- 65
2021-02-09 23:00:00 9.7 7 Sudoeste 12 Sudoeste 0 -- -- 69
2021-02-09 22:00:00 9.9 7 Sudoeste 11 Sudoeste 0 -- -- 66
2021-02-09 21:00:00 10.6 8 Sudoeste 25 Sudoeste 0 -- -- 62
2021-02-09 20:00:00 11.4 12 Oeste 32 Noroeste 0 -- -- 58
2021-02-09 19:00:00 11.7 16 Oeste 32 Noroeste 0 -- -- 57
2021-02-09 18:00:00 12.8 18 Oeste 36 Oeste 0 -- -- 55
2021-02-09 17:00:00 14.2 19 Noroeste 41 Oeste 0 -- -- 53
2021-02-09 16:00:00 12.3 11 Sudoeste 21 Oeste 0 -- -- 76
2021-02-09 15:00:00 12 6 Oeste 40 Oeste 0.4 -- -- 82
2021-02-09 14:00:00 14.1 22 Oeste 40 Sudoeste 0 -- -- 67
2021-02-09 13:00:00 15 21 Oeste 45 Oeste 0 -- -- 59
2021-02-09 12:00:00 14.9 21 Oeste 51 Oeste 0 -- -- 59
2021-02-09 11:00:00 14.4 22 Oeste 49 Sudoeste 0 -- -- 60
2021-02-09 10:00:00 12.3 6 Sudoeste 22 Sudoeste 0 -- -- 67
2021-02-09 09:00:00 11.6 16 Sudoeste 35 Oeste 0 -- -- 67
2021-02-09 08:00:00 10.9 17 Oeste 33 Oeste 0 -- -- 71
2021-02-09 07:00:00 10.8 11 Sudoeste 39 Sudoeste 0 -- -- 76
2021-02-09 06:00:00 11.1 17 Sudoeste 31 Oeste 0 -- -- 73
2021-02-09 05:00:00 9.6 11 Sudoeste 18 Sudoeste 0 -- -- 78
2021-02-09 04:00:00 9.3 8 Sudoeste 14 Sudoeste 0 -- -- 79
2021-02-09 03:00:00 9.2 4 Sudoeste 9 Sudoeste 0 -- -- 81
2021-02-09 02:00:00 8.9 3 Sur 8 Sudoeste 0 -- -- 88
2021-02-09 01:00:00 8.8 6 Sudoeste 11 Oeste 0 -- -- 91
2021-02-09 00:00:00 8.8 8 Oeste 13 Sudoeste 0 -- -- 91
2021-02-08 23:00:00 9.8 7 Sudoeste 10 Sudoeste 0 -- -- 91
2021-02-08 22:00:00 10.4 4 Sudoeste 11 Oeste 0 -- -- 87
2021-02-08 21:00:00 11 3 Sudoeste 19 Oeste 0.2 -- -- 84
2021-02-08 20:00:00 11.7 8 Noroeste 17 Noroeste 0 -- -- 79
2021-02-08 19:00:00 11.6 3 Oeste 28 Nordeste 0 -- -- 72
2021-02-08 18:00:00 12.6 6 Norte 15 Noroeste 0 -- -- 70
2021-02-08 17:00:00 13.6 5 Noroeste 23 Noroeste 0 -- -- 68
2021-02-08 16:00:00 14.1 9 Norte 23 Nordeste 0 -- -- 66
2021-02-08 15:00:00 14.5 10 Norte 22 Nordeste 0 -- -- 62
2021-02-08 14:00:00 13.6 7 Norte 26 Oeste 0 -- -- 65
2021-02-08 13:00:00 14.2 14 Oeste 30 Noroeste 0 -- -- 67
2021-02-08 12:00:00 13.1 8 Sudoeste 17 Sudoeste 0 -- -- 81
2021-02-08 11:00:00 11 10 Sudoeste 15 Sudoeste 0 -- -- 88
2021-02-08 10:00:00 9.8 8 Sudoeste 10 Sudoeste 0 -- -- 93
2021-02-08 09:00:00 9.5 9 Sudoeste 16 Noroeste 0.2 -- -- 91
2021-02-08 08:00:00 10.3 11 Noroeste 20 Noroeste 0.4 -- -- 84
2021-02-08 07:00:00 9.7 3 Sur 9 Sudoeste 0 -- -- 85
2021-02-08 06:00:00 9.4 8 Oeste 15 Oeste 0 -- -- 89
2021-02-08 05:00:00 9.8 4 Sudoeste 29 Oeste 0.6 -- -- 88
2021-02-08 04:00:00 10.3 11 Oeste 22 Oeste 0 -- -- 80
2021-02-08 03:00:00 10.2 14 Oeste 26 Sudoeste 0.2 -- -- 80
2021-02-08 02:00:00 9.7 10 Sudoeste 21 Sur 0 -- -- 79
2021-02-08 01:00:00 9.4 11 Sudoeste 26 Oeste 0 -- -- 81
2021-02-08 00:00:00 8.9 8 Sudoeste 18 Sudoeste 0 -- -- 83
2021-02-07 23:00:00 8.1 6 Sudoeste 13 Sudoeste 0 -- -- 91
2021-02-07 22:00:00 7.7 6 Sur 12 Sur 0 -- -- 94
2021-02-07 21:00:00 7.8 3 Sudoeste 10 Sudoeste 0.4 -- -- 92
2021-02-07 20:00:00 8.2 5 Sudoeste 9 Oeste 0 -- -- 89
2021-02-07 19:00:00 9 0 Calma 4 Nordeste 0 -- -- 85
2021-02-07 18:00:00 9.7 0 Calma 6 Sudoeste 0 -- -- 82
2021-02-07 17:00:00 10.1 5 Norte 17 Nordeste 0 -- -- 77
2021-02-07 16:00:00 11.8 5 Nordeste 11 Norte 0 -- -- 62
2021-02-07 15:00:00 11.4 5 Norte 19 Norte 0 -- -- 65
2021-02-07 14:00:00 11.6 7 Oeste 19 Oeste 0 -- -- 68
2021-02-07 13:00:00 11.3 4 Oeste 20 Sudoeste 0 -- -- 73
2021-02-07 12:00:00 10 7 Sudoeste 19 Oeste 0 -- -- 80
2021-02-07 11:00:00 7.8 7 Sudoeste 10 Sudoeste 0 -- -- 96
2021-02-07 10:00:00 6.6 5 Oeste 13 Sudoeste 0 -- -- 98
2021-02-07 09:00:00 5.8 8 Sudoeste 13 Oeste 0 -- -- 99
2021-02-07 08:00:00 5.5 8 Oeste 12 Sudoeste 0 -- -- 98
2021-02-07 07:00:00 5.8 7 Oeste 12 Sudoeste 0 -- -- 98
2021-02-07 06:00:00 6 9 Sudoeste 12 Sudoeste 0.2 -- -- 99
2021-02-07 05:00:00 6 6 Sudoeste 10 Sudoeste 0.6 -- -- 99
2021-02-07 04:00:00 6 8 Sudoeste 14 Sudoeste 0 -- -- 99
2021-02-07 03:00:00 5.8 10 Sudoeste 16 Sudoeste 0.8 -- -- 98
2021-02-07 02:00:00 6.1 7 Sur 14 Noroeste 0.6 -- -- 96
2021-02-07 01:00:00 6.6 11 Norte 23 Norte 0.2 -- -- 96
2021-02-07 00:00:00 7.1 9 Norte 25 Norte 0 -- -- 85
2021-02-06 23:00:00 7.6 10 Norte 19 Norte 0.4 -- -- 87
2021-02-06 22:00:00 7.4 8 Noroeste 15 Norte 0.2 -- -- 89
2021-02-06 21:00:00 8.1 6 Este 24 Norte 0.2 -- -- 87
2021-02-06 20:00:00 8.4 6 Norte 19 Nordeste 0 -- -- 85
2021-02-06 19:00:00 8.4 7 Norte 14 Norte 0.2 -- -- 90
2021-02-06 18:00:00 8.5 3 Nordeste 20 Noroeste 0 -- -- 94
2021-02-06 17:00:00 8.7 9 Norte 21 Norte 0.4 -- -- 92
2021-02-06 16:00:00 8.9 12 Norte 42 Nordeste 1.4 -- -- 93
2021-02-06 15:00:00 9.3 22 Norte 35 Nordeste 1.8 -- -- 94
2021-02-06 14:00:00 9.4 20 Nordeste 39 Nordeste 2 -- -- 96
2021-02-06 13:00:00 9.7 23 Nordeste 55 Norte 3.6 -- -- 99
2021-02-06 12:00:00 10 29 Nordeste 46 Norte 6 -- -- 100
2021-02-06 11:00:00 11 19 Nordeste 39 Nordeste 5.6 -- -- 100
2021-02-06 10:00:00 11.1 9 Nordeste 15 Norte 3.4 -- -- 100
2021-02-06 09:00:00 11.1 8 Nordeste 13 Nordeste 2.4 -- -- 100
2021-02-06 08:00:00 11 7 Nordeste 12 Norte 3.4 -- -- 99
2021-02-06 07:00:00 11.2 7 Norte 12 Norte 3.2 -- -- 98
2021-02-06 06:00:00 11.4 7 Nordeste 13 Este 0.4 -- -- 97
2021-02-06 05:00:00 11.5 4 Nordeste 12 Este 0.4 -- -- 97
2021-02-06 04:00:00 11.5 6 Este 22 Este 0 -- -- 98
2021-02-06 03:00:00 11.3 5 Este 17 Este 0.2 -- -- 99
2021-02-06 02:00:00 11.2 0 Calma 8 Nordeste 0 -- -- 99
2021-02-06 01:00:00 11 0 Calma 9 Norte 0 -- -- 99
2021-02-06 00:00:00 11.1 2 Nordeste 8 Nordeste 0 -- -- 97
2021-02-05 23:00:00 11.1 3 Nordeste 6 Nordeste 0 -- -- 98
2021-02-05 22:00:00 10.9 0 Calma 6 Este 0 -- -- 99
2021-02-05 21:00:00 11 3 Nordeste 6 Nordeste 0 -- -- 99
2021-02-05 20:00:00 11 3 Nordeste 10 Este 0 -- -- 99
2021-02-05 19:00:00 11 5 Nordeste 10 Nordeste 0 -- -- 99
2021-02-05 18:00:00 11.1 5 Nordeste 14 Este 0 -- -- 99
2021-02-05 17:00:00 11.4 6 Nordeste 13 Este 0 -- -- 98
2021-02-05 16:00:00 11.5 8 Este 15 Este 0 -- -- 98
2021-02-05 15:00:00 11.7 6 Este 12 Este 0 -- -- 99
2021-02-05 14:00:00 12.1 5 Nordeste 9 Nordeste 0 -- -- 100
2021-02-05 13:00:00 11.7 4 Nordeste 10 Nordeste 0 -- -- 100
2021-02-05 12:00:00 11.4 0 Calma 5 Norte 0 -- -- 100
2021-02-05 11:00:00 11.2 0 Calma 4 Sur 0.2 -- -- 100
2021-02-05 10:00:00 10.8 0 Calma 6 Oeste 0 -- -- 100
2021-02-05 09:00:00 10.6 3 Oeste 9 Sudeste 0.2 -- -- 100
2021-02-05 08:00:00 10.6 3 Norte 10 Noroeste 0.6 -- -- 100
2021-02-05 07:00:00 10.6 5 Nordeste 9 Nordeste 0 -- -- 100
2021-02-05 06:00:00 10.4 4 Oeste 6 Oeste 0.2 -- -- 100
2021-02-05 05:00:00 10.5 4 Norte 10 Nordeste 0 -- -- 100
2021-02-05 04:00:00 10.2 3 Sudeste 7 Oeste 0 -- -- 100
2021-02-05 03:00:00 10.2 2 Oeste 4 Sudoeste 0 -- -- 99
2021-02-05 02:00:00 10.1 0 Calma 2 Noroeste 0 -- -- 99
2021-02-05 01:00:00 10.1 0 Calma 5 Oeste 0 -- -- 99
2021-02-05 00:00:00 10.1 0 Calma 7 Oeste 0 -- -- 99
2021-02-04 23:00:00 10 4 Noroeste 10 Oeste 0.4 -- -- 98
2021-02-04 22:00:00 10.1 6 Sudoeste 15 Oeste 3.8 -- -- 97
2021-02-04 21:00:00 10.6 6 Sudoeste 15 Nordeste 3.4 -- -- 95
2021-02-04 20:00:00 12.2 6 Norte 18 Nordeste 0.8 -- -- 91
2021-02-04 19:00:00 12.7 9 Nordeste 16 Norte 0 -- -- 90
2021-02-04 18:00:00 13.1 10 Norte 16 Nordeste 0 -- -- 87
2021-02-04 17:00:00 13.1 8 Este 20 Nordeste 0.2 -- -- 89
2021-02-04 16:00:00 14.8 4 Nordeste 9 Nordeste 0 -- -- 79
2021-02-04 15:00:00 16 5 Este 6 Este 0 -- -- 71
2021-02-04 14:00:00 16.4 2 Sur 7 Sur 0 -- -- 67
2021-02-04 13:00:00 16.6 3 Sudoeste 13 Oeste 0 -- -- 65
2021-02-04 12:00:00 15.4 5 Sudoeste 8 Oeste 0 -- -- 74
2021-02-04 11:00:00 14.4 5 Sur 10 Oeste 0 -- -- 75
2021-02-04 10:00:00 14.2 4 Oeste 17 Sudoeste 0 -- -- 69
2021-02-04 09:00:00 14 9 Oeste 13 Oeste 0 -- -- 69
2021-02-04 08:00:00 14.1 6 Oeste 14 Sudoeste 0 -- -- 68
2021-02-04 07:00:00 13.8 8 Oeste 13 Oeste 0 -- -- 69
2021-02-04 06:00:00 14.2 9 Oeste 17 Oeste 0 -- -- 66
2021-02-04 05:00:00 14.2 9 Oeste 21 Sudoeste 0 -- -- 67
2021-02-04 04:00:00 14 13 Oeste 29 Sudoeste 0 -- -- 68
2021-02-04 03:00:00 14.2 17 Oeste 28 Sudoeste 0 -- -- 66
2021-02-04 02:00:00 14.4 17 Oeste 28 Oeste 0 -- -- 68
2021-02-04 01:00:00 14.7 14 Oeste 26 Oeste 0 -- -- 68
2021-02-04 00:00:00 15.1 12 Oeste 22 Oeste 0 -- -- 65